Time;durP1;ratioP1;P1;durP2;ratioP2;P2;SDS_P1;SDS_P2;PMS_P1;PMS_P2;Temp;Humidity;BMP_temperature;BMP_pressure;BME280_temperature;BME280_humidity;BME280_pressure;Samples;Min_cycle;Max_cycle;Signal;HPM_P1;HPM_P2
2023/12/14 00:00:45;;;;;;;2.57;1.33;;;8.80;99.90;;;;;;5056531;28;20558;-44
2023/12/14 00:03:16;;;;;;;1.70;1.27;;;8.80;99.90;;;;;;5053932;28;20424;-46
2023/12/14 00:05:46;;;;;;;3.37;1.43;;;8.80;99.90;;;;;;5051230;28;20572;-46
2023/12/14 00:08:14;;;;;;;2.93;1.40;;;8.90;99.90;;;;;;5054352;28;20466;-47
2023/12/14 00:10:43;;;;;;;2.83;1.63;;;8.80;99.90;;;;;;5053735;28;20520;-45
2023/12/14 00:13:11;;;;;;;2.50;1.63;;;8.80;99.90;;;;;;5056927;28;20443;-46
2023/12/14 00:15:40;;;;;;;2.30;1.50;;;8.80;99.90;;;;;;5053285;28;20512;-46
2023/12/14 00:18:08;;;;;;;2.70;1.70;;;8.90;99.90;;;;;;5054819;28;20434;-46
2023/12/14 00:20:36;;;;;;;1.60;1.13;;;8.80;99.90;;;;;;5057217;28;20525;-47
2023/12/14 00:23:04;;;;;;;4.30;1.50;;;8.90;99.90;;;;;;5058057;28;20857;-47
2023/12/14 00:25:32;;;;;;;2.23;1.23;;;8.80;99.90;;;;;;5058884;28;20469;-47
2023/12/14 00:28:00;;;;;;;3.70;1.70;;;8.90;99.90;;;;;;5060424;28;20458;-47
2023/12/14 00:30:28;;;;;;;3.17;1.67;;;8.90;99.90;;;;;;5057243;28;20550;-47
2023/12/14 00:32:58;;;;;;;2.37;1.40;;;8.80;99.90;;;;;;5060323;28;20446;-47
2023/12/14 00:35:26;;;;;;;2.20;1.57;;;8.80;99.90;;;;;;5052536;28;20471;-46
2023/12/14 00:37:54;;;;;;;2.97;1.60;;;8.80;99.90;;;;;;5054380;28;20419;-46
2023/12/14 00:40:22;;;;;;;2.80;1.83;;;8.80;99.90;;;;;;5051937;28;20503;-47
2023/12/14 00:42:50;;;;;;;2.30;1.50;;;8.80;99.90;;;;;;5057685;28;20711;-47
2023/12/14 00:45:19;;;;;;;2.67;1.70;;;8.80;99.90;;;;;;5055030;28;20466;-46
2023/12/14 00:47:47;;;;;;;3.10;1.67;;;8.80;99.90;;;;;;5061167;28;20434;-47
2023/12/14 00:50:17;;;;;;;3.00;2.17;;;8.80;99.90;;;;;;5058073;28;20471;-47
2023/12/14 00:52:45;;;;;;;3.53;2.00;;;8.90;99.90;;;;;;5060376;28;20415;-45
2023/12/14 00:55:13;;;;;;;2.70;1.77;;;8.80;99.90;;;;;;5057659;28;20467;-47
2023/12/14 00:57:44;;;;;;;2.33;1.90;;;8.80;99.90;;;;;;5060193;28;20442;-46
2023/12/14 01:00:13;;;;;;;2.20;1.63;;;8.80;99.90;;;;;;5051553;28;20482;-47
2023/12/14 01:02:41;;;;;;;2.80;1.80;;;8.80;99.90;;;;;;5051496;28;20438;-47
2023/12/14 01:05:10;;;;;;;2.70;2.03;;;8.80;99.90;;;;;;5056488;28;20467;-47
2023/12/14 01:07:39;;;;;;;2.70;2.07;;;8.80;99.90;;;;;;5053726;28;20846;-47
2023/12/14 01:10:08;;;;;;;3.13;1.93;;;8.80;99.90;;;;;;5062596;28;20991;-47
2023/12/14 01:12:36;;;;;;;3.93;2.30;;;8.80;99.90;;;;;;5057647;28;20820;-46
2023/12/14 01:15:08;;;;;;;2.80;1.70;;;8.80;99.90;;;;;;5057522;28;21050;-47
2023/12/14 01:17:37;;;;;;;3.40;2.13;;;8.80;99.90;;;;;;5064588;28;20490;-47
2023/12/14 01:20:11;;;;;;;3.50;2.80;;;8.80;99.90;;;;;;5052139;28;20547;-45
2023/12/14 01:22:41;;;;;;;6.13;2.57;;;8.80;99.90;;;;;;5056140;28;20947;-46
2023/12/14 01:25:09;;;;;;;3.10;2.20;;;8.80;99.90;;;;;;5061025;28;20835;-47
2023/12/14 01:27:37;;;;;;;4.27;2.47;;;8.80;99.90;;;;;;5052766;28;20447;-46
2023/12/14 01:30:06;;;;;;;5.13;2.50;;;8.80;99.90;;;;;;5057270;28;20520;-45
2023/12/14 01:32:38;;;;;;;3.07;2.23;;;8.80;99.90;;;;;;5060945;28;20836;-45
2023/12/14 01:35:07;;;;;;;5.77;2.90;;;8.80;99.90;;;;;;5050450;28;20879;-46
2023/12/14 01:37:35;;;;;;;4.77;3.07;;;8.80;99.90;;;;;;5052431;28;20464;-47
2023/12/14 01:40:09;;;;;;;4.67;2.80;;;8.80;99.90;;;;;;5051730;28;20485;-46
2023/12/14 01:42:40;;;;;;;4.07;2.33;;;8.80;99.90;;;;;;5061772;28;20534;-46
2023/12/14 01:45:08;;;;;;;4.10;2.70;;;8.80;99.90;;;;;;5052315;28;20895;-45
2023/12/14 01:47:36;;;;;;;4.70;2.40;;;8.80;99.90;;;;;;5058796;28;21029;-47
2023/12/14 01:50:08;;;;;;;3.80;2.83;;;8.80;99.90;;;;;;5067531;28;20486;-45
2023/12/14 01:52:39;;;;;;;4.00;2.30;;;8.80;99.90;;;;;;5062705;28;20441;-45
2023/12/14 01:55:11;;;;;;;4.00;2.23;;;8.80;99.90;;;;;;5060106;28;21022;-47
2023/12/14 01:57:39;;;;;;;5.50;3.10;;;8.80;99.90;;;;;;5054260;28;21009;-45
2023/12/14 02:00:14;;;;;;;4.67;2.67;;;8.80;99.90;;;;;;5053567;28;20728;-47
2023/12/14 02:02:42;;;;;;;4.70;2.80;;;8.80;99.90;;;;;;5055428;28;20514;-45
2023/12/14 02:05:10;;;;;;;5.20;3.70;;;8.80;99.90;;;;;;5052377;28;20477;-46
2023/12/14 02:07:38;;;;;;;4.30;2.80;;;8.80;99.90;;;;;;5058026;28;20443;-47
2023/12/14 02:10:09;;;;;;;5.07;3.57;;;8.80;99.90;;;;;;5060027;28;20863;-47
2023/12/14 02:12:37;;;;;;;4.27;2.87;;;8.80;99.90;;;;;;5053445;28;20733;-47
2023/12/14 02:15:08;;;;;;;5.03;2.90;;;8.80;99.90;;;;;;5061481;28;20467;-45
2023/12/14 02:17:36;;;;;;;4.70;3.03;;;8.80;99.90;;;;;;5061423;28;20795;-46
2023/12/14 02:20:06;;;;;;;5.40;2.87;;;8.80;99.90;;;;;;5057409;28;20466;-47
2023/12/14 02:22:50;;;;;;;5.33;3.80;;;8.80;99.90;;;;;;5054244;28;20470;-44
2023/12/14 02:25:18;;;;;;;3.77;3.17;;;8.80;99.90;;;;;;5054358;28;20489;-45
2023/12/14 02:27:47;;;;;;;6.03;3.57;;;8.80;99.90;;;;;;5051302;28;20551;-46
2023/12/14 02:30:15;;;;;;;5.80;3.30;;;8.80;99.90;;;;;;5052848;28;20999;-46
2023/12/14 02:32:47;;;;;;;5.50;3.83;;;8.80;99.90;;;;;;5058431;28;20429;-45
2023/12/14 02:35:15;;;;;;;5.70;3.53;;;8.80;99.90;;;;;;5059638;28;20478;-46
2023/12/14 02:37:45;;;;;;;6.20;3.30;;;8.80;99.90;;;;;;5058651;28;20426;-47
2023/12/14 02:40:14;;;;;;;6.00;3.60;;;8.80;99.90;;;;;;5057590;28;20703;-45
2023/12/14 02:42:42;;;;;;;6.93;4.23;;;8.80;99.90;;;;;;5057707;28;20542;-46
2023/12/14 02:45:11;;;;;;;5.00;3.90;;;8.80;99.90;;;;;;5060720;28;20463;-47
2023/12/14 02:47:39;;;;;;;6.33;3.60;;;8.80;99.90;;;;;;5057745;28;20864;-45
2023/12/14 02:50:08;;;;;;;6.03;4.23;;;8.80;99.90;;;;;;5055525;28;20472;-46
2023/12/14 02:52:36;;;;;;;5.20;3.47;;;8.80;99.90;;;;;;5055910;28;20443;-45
2023/12/14 02:55:07;;;;;;;5.87;3.90;;;8.80;99.90;;;;;;5054713;28;20529;-45
2023/12/14 02:57:35;;;;;;;6.00;4.27;;;8.80;99.90;;;;;;5052925;28;20990;-46
2023/12/14 03:00:03;;;;;;;5.77;4.17;;;8.80;99.90;;;;;;5061226;28;20538;-46
2023/12/14 03:02:31;;;;;;;6.17;3.90;;;8.80;99.90;;;;;;5054329;28;20486;-47
2023/12/14 03:04:59;;;;;;;7.23;4.47;;;8.80;99.90;;;;;;5057808;28;20523;-46
2023/12/14 03:07:27;;;;;;;6.40;4.27;;;8.80;99.90;;;;;;5054632;28;20442;-46
2023/12/14 03:09:55;;;;;;;5.87;3.87;;;8.80;99.90;;;;;;5056890;28;20533;-46
2023/12/14 03:12:25;;;;;;;5.20;3.40;;;8.80;99.90;;;;;;5052323;28;20435;-47
2023/12/14 03:14:53;;;;;;;6.53;4.83;;;8.80;99.90;;;;;;5052842;28;20498;-47
2023/12/14 03:17:21;;;;;;;4.90;3.50;;;8.80;99.90;;;;;;5052102;28;20494;-45
2023/12/14 03:19:52;;;;;;;6.23;4.37;;;8.80;99.90;;;;;;5051624;28;20497;-45
2023/12/14 03:22:20;;;;;;;6.63;4.50;;;8.80;99.90;;;;;;5053244;28;20455;-47
2023/12/14 03:24:48;;;;;;;5.57;4.00;;;8.80;99.90;;;;;;5055754;28;20486;-47
2023/12/14 03:27:16;;;;;;;6.27;4.20;;;8.80;99.90;;;;;;5056176;28;20480;-45
2023/12/14 03:29:45;;;;;;;7.00;4.33;;;8.80;99.90;;;;;;5047082;28;20477;-46
2023/12/14 03:32:13;;;;;;;6.50;4.40;;;8.80;99.90;;;;;;5053509;28;20497;-47
2023/12/14 03:34:42;;;;;;;7.90;4.03;;;8.80;99.90;;;;;;5048724;28;20489;-47
2023/12/14 03:37:13;;;;;;;7.10;4.87;;;8.80;99.90;;;;;;5054908;28;20467;-47
2023/12/14 03:39:41;;;;;;;5.77;3.83;;;8.80;99.90;;;;;;5047908;28;20528;-46
2023/12/14 03:42:12;;;;;;;6.60;4.03;;;8.80;99.90;;;;;;5048627;28;20582;-46
2023/12/14 03:44:42;;;;;;;5.63;4.20;;;8.80;99.90;;;;;;5049861;28;20653;-46
2023/12/14 03:47:11;;;;;;;6.17;4.00;;;8.80;99.90;;;;;;5055009;28;20429;-46
2023/12/14 03:49:42;;;;;;;7.03;4.50;;;8.80;99.90;;;;;;5048245;28;21010;-44
2023/12/14 03:52:10;;;;;;;6.20;4.27;;;8.80;99.90;;;;;;5053202;28;20430;-46
2023/12/14 03:54:38;;;;;;;5.97;4.30;;;8.80;99.90;;;;;;5058914;28;21078;-45
2023/12/14 03:57:09;;;;;;;6.10;3.87;;;8.80;99.90;;;;;;5051781;28;20991;-46
2023/12/14 03:59:40;;;;;;;6.70;4.67;;;8.80;99.90;;;;;;5054113;28;20907;-46
2023/12/14 04:02:14;;;;;;;5.50;4.00;;;8.80;99.90;;;;;;5051999;28;20482;-47
2023/12/14 04:04:43;;;;;;;7.20;5.10;;;8.80;99.90;;;;;;5056977;28;20543;-46
2023/12/14 04:07:11;;;;;;;5.53;3.80;;;8.70;99.90;;;;;;5053343;28;20431;-46
2023/12/14 04:09:42;;;;;;;6.40;4.33;;;8.70;99.90;;;;;;5053520;28;20466;-47
2023/12/14 04:12:10;;;;;;;6.50;4.43;;;8.80;99.90;;;;;;5052916;28;21141;-46
2023/12/14 04:14:38;;;;;;;5.30;4.00;;;8.80;99.90;;;;;;5057814;28;20553;-46
2023/12/14 04:17:06;;;;;;;6.50;3.53;;;8.80;99.90;;;;;;5055339;28;20594;-46
2023/12/14 04:19:35;;;;;;;8.17;4.77;;;8.70;99.90;;;;;;5060483;28;20504;-46
2023/12/14 04:22:03;;;;;;;6.87;4.50;;;8.70;99.90;;;;;;5052206;28;20469;-45
2023/12/14 04:24:32;;;;;;;6.33;4.47;;;8.70;99.90;;;;;;5056069;28;20522;-45
2023/12/14 04:27:00;;;;;;;6.17;3.93;;;8.70;99.90;;;;;;5051542;28;20463;-46
2023/12/14 04:29:28;;;;;;;8.40;5.07;;;8.80;99.90;;;;;;5058810;28;20458;-45
2023/12/14 04:31:56;;;;;;;5.80;3.70;;;8.70;99.90;;;;;;5047983;28;20510;-46
2023/12/14 04:34:24;;;;;;;6.80;4.10;;;8.70;99.90;;;;;;5052860;28;20956;-47
2023/12/14 04:36:57;;;;;;;7.13;4.50;;;8.80;99.90;;;;;;5049276;28;20471;-45
2023/12/14 04:39:25;;;;;;;6.10;4.17;;;8.70;99.90;;;;;;5058386;28;20980;-47
2023/12/14 04:41:54;;;;;;;7.47;4.93;;;8.80;99.90;;;;;;5052889;28;20473;-47
2023/12/14 04:44:22;;;;;;;8.33;5.30;;;8.70;99.90;;;;;;5052906;28;21013;-46
2023/12/14 04:46:50;;;;;;;6.10;4.00;;;8.70;99.90;;;;;;5055636;28;20474;-44
2023/12/14 04:49:20;;;;;;;8.57;5.20;;;8.80;99.90;;;;;;5056840;28;20451;-45
2023/12/14 04:51:48;;;;;;;6.33;4.63;;;8.70;99.90;;;;;;5057572;28;20446;-46
2023/12/14 04:54:17;;;;;;;7.70;5.77;;;8.80;99.90;;;;;;5054687;28;20928;-46
2023/12/14 04:56:46;;;;;;;6.80;4.43;;;8.80;99.90;;;;;;5049955;28;21282;-45
2023/12/14 04:59:14;;;;;;;6.83;4.50;;;8.70;99.90;;;;;;5052308;28;20790;-46
2023/12/14 05:01:45;;;;;;;5.47;4.37;;;8.70;99.90;;;;;;5052931;28;20426;-46
2023/12/14 05:04:13;;;;;;;6.80;3.93;;;8.70;99.90;;;;;;5058822;28;20976;-47
2023/12/14 05:06:44;;;;;;;5.87;4.27;;;8.80;99.90;;;;;;5054926;28;20928;-46
2023/12/14 05:09:12;;;;;;;5.17;4.30;;;8.70;99.90;;;;;;5059111;28;20508;-46
2023/12/14 05:11:43;;;;;;;5.50;4.20;;;8.70;99.90;;;;;;5057202;28;20805;-47
2023/12/14 05:14:13;;;;;;;6.80;4.83;;;8.70;99.90;;;;;;5055452;28;20443;-45
2023/12/14 05:16:41;;;;;;;5.60;3.97;;;8.70;99.90;;;;;;5056165;28;20443;-46
2023/12/14 05:19:10;;;;;;;7.93;4.63;;;8.70;99.90;;;;;;5055361;28;21042;-45
2023/12/14 05:21:40;;;;;;;6.83;4.70;;;8.70;99.90;;;;;;5050834;28;20532;-46
2023/12/14 05:24:08;;;;;;;6.20;4.43;;;8.80;99.90;;;;;;5055998;28;21000;-46
2023/12/14 05:26:38;;;;;;;5.97;4.47;;;8.70;99.90;;;;;;5057232;28;20449;-46
2023/12/14 05:29:08;;;;;;;8.23;5.20;;;8.70;99.90;;;;;;5051324;28;20968;-47
2023/12/14 05:31:36;;;;;;;6.30;4.30;;;8.70;99.90;;;;;;5060162;28;20451;-46
2023/12/14 05:34:04;;;;;;;6.20;5.37;;;8.70;99.90;;;;;;5059963;28;20447;-47
2023/12/14 05:36:33;;;;;;;6.93;4.60;;;8.70;99.90;;;;;;5054060;28;20448;-47
2023/12/14 05:39:03;;;;;;;6.73;4.07;;;8.70;99.90;;;;;;5051354;28;20451;-45
2023/12/14 05:41:31;;;;;;;7.30;4.50;;;8.70;99.90;;;;;;5055771;28;20451;-45
2023/12/14 05:44:01;;;;;;;6.10;4.27;;;8.70;99.90;;;;;;5051390;28;20459;-46
2023/12/14 05:46:31;;;;;;;5.57;4.63;;;8.70;99.90;;;;;;5058174;28;20509;-46
2023/12/14 05:49:02;;;;;;;7.00;4.10;;;8.70;99.90;;;;;;5053759;28;20443;-46
2023/12/14 05:51:31;;;;;;;7.63;5.10;;;8.70;99.90;;;;;;5054130;28;20482;-46
2023/12/14 05:53:59;;;;;;;6.93;4.40;;;8.70;99.90;;;;;;5059263;28;20955;-46
2023/12/14 05:56:30;;;;;;;5.83;4.10;;;8.70;99.90;;;;;;5049754;28;20525;-47
2023/12/14 05:59:03;;;;;;;5.13;3.97;;;8.70;99.90;;;;;;5055365;28;20526;-46
2023/12/14 06:01:32;;;;;;;6.70;4.43;;;8.70;99.90;;;;;;5059230;28;20454;-47
2023/12/14 06:04:08;;;;;;;7.47;4.57;;;8.70;99.90;;;;;;5059714;28;20848;-47
2023/12/14 06:06:41;;;;;;;6.60;4.40;;;8.70;99.90;;;;;;5057888;28;20450;-45
2023/12/14 06:09:09;;;;;;;6.10;4.13;;;8.70;99.90;;;;;;5055506;28;20483;-46
2023/12/14 06:11:37;;;;;;;6.20;4.80;;;8.70;99.90;;;;;;5057711;28;20431;-45
2023/12/14 06:14:08;;;;;;;6.80;5.10;;;8.70;99.90;;;;;;5054730;28;20435;-46
2023/12/14 06:16:38;;;;;;;6.97;4.00;;;8.70;99.90;;;;;;5054806;28;20480;-45
2023/12/14 06:19:08;;;;;;;5.38;4.00;;;8.70;99.90;;;;;;5054373;28;20455;-46
2023/12/14 06:21:36;;;;;;;5.40;4.07;;;8.70;99.90;;;;;;5057566;28;20276;-46
2023/12/14 06:24:05;;;;;;;5.77;4.50;;;8.70;99.90;;;;;;5049914;28;20459;-45
2023/12/14 06:26:41;;;;;;;8.17;4.97;;;8.70;99.90;;;;;;5060457;28;20814;-47
2023/12/14 06:29:09;;;;;;;6.90;4.30;;;8.70;99.90;;;;;;5053606;28;21012;-46
2023/12/14 06:31:38;;;;;;;6.70;4.50;;;8.70;99.90;;;;;;5056786;28;20462;-46
2023/12/14 06:34:07;;;;;;;7.03;5.07;;;8.70;99.90;;;;;;5054115;28;20432;-45
2023/12/14 06:36:35;;;;;;;7.10;4.40;;;8.70;99.90;;;;;;5050533;28;20959;-46
2023/12/14 06:39:04;;;;;;;6.77;5.30;;;8.70;99.90;;;;;;5061050;28;20442;-45
2023/12/14 06:41:32;;;;;;;8.07;4.70;;;8.70;99.90;;;;;;5052335;28;20423;-45
2023/12/14 06:44:03;;;;;;;6.40;4.20;;;8.70;99.90;;;;;;5053990;28;20465;-46
2023/12/14 06:46:31;;;;;;;8.43;5.60;;;8.70;99.90;;;;;;5050136;28;20460;-47
2023/12/14 06:49:01;;;;;;;7.30;4.87;;;8.70;99.90;;;;;;5058244;28;20449;-46
2023/12/14 06:51:29;;;;;;;5.97;5.10;;;8.70;99.90;;;;;;5052822;28;20474;-46
2023/12/14 06:53:57;;;;;;;6.80;4.50;;;8.70;99.90;;;;;;5054467;28;20897;-46
2023/12/14 06:56:27;;;;;;;7.57;4.70;;;8.70;99.90;;;;;;5051709;28;20516;-47
2023/12/14 06:58:55;;;;;;;6.47;4.40;;;8.60;99.90;;;;;;5058355;28;20451;-45
2023/12/14 07:01:23;;;;;;;6.77;4.90;;;8.70;99.90;;;;;;5056778;28;20458;-48
2023/12/14 07:03:51;;;;;;;6.10;4.40;;;8.70;99.90;;;;;;5055733;28;20837;-46
2023/12/14 07:06:21;;;;;;;7.17;5.30;;;8.70;99.90;;;;;;5054230;28;21059;-46
2023/12/14 07:08:49;;;;;;;7.40;5.20;;;8.70;99.90;;;;;;5062067;28;20963;-48
2023/12/14 07:11:18;;;;;;;7.50;5.03;;;8.70;99.90;;;;;;5051102;28;20557;-46
2023/12/14 07:13:48;;;;;;;7.55;4.93;;;8.70;99.90;;;;;;5055588;28;20469;-46
2023/12/14 07:16:19;;;;;;;6.13;4.77;;;8.70;99.90;;;;;;5057116;28;20220;-47
2023/12/14 07:18:49;;;;;;;8.63;5.23;;;8.70;99.90;;;;;;5051060;28;20478;-45
2023/12/14 07:21:18;;;;;;;6.70;4.23;;;8.70;99.90;;;;;;5050835;28;20506;-45
2023/12/14 07:23:47;;;;;;;5.93;4.60;;;8.60;99.90;;;;;;5052738;28;21014;-46
2023/12/14 07:26:15;;;;;;;6.40;4.57;;;8.70;99.90;;;;;;5056131;28;20486;-44
2023/12/14 07:28:43;;;;;;;7.43;4.90;;;8.70;99.90;;;;;;5051884;28;20504;-47
2023/12/14 07:31:11;;;;;;;6.60;4.60;;;8.70;99.90;;;;;;5060522;28;20493;-46
2023/12/14 07:33:39;;;;;;;7.10;5.37;;;8.70;99.90;;;;;;5051763;28;20501;-44
2023/12/14 07:36:08;;;;;;;4.87;4.13;;;8.60;99.90;;;;;;5052449;28;20495;-46
2023/12/14 07:38:36;;;;;;;6.00;4.60;;;8.60;99.90;;;;;;5055957;28;20483;-47
2023/12/14 07:41:06;;;;;;;6.10;4.53;;;8.60;99.90;;;;;;5053277;28;20509;-45
2023/12/14 07:43:34;;;;;;;7.07;4.30;;;8.60;99.90;;;;;;5053527;28;20466;-46
2023/12/14 07:46:02;;;;;;;6.60;4.63;;;8.60;99.90;;;;;;5053124;28;20459;-45
2023/12/14 07:48:30;;;;;;;8.87;5.20;;;8.70;99.90;;;;;;5055139;28;20867;-45
2023/12/14 07:50:58;;;;;;;6.60;4.33;;;8.60;99.90;;;;;;5053067;28;20562;-45
2023/12/14 07:53:26;;;;;;;7.30;4.93;;;8.70;99.90;;;;;;5058694;28;20453;-47
2023/12/14 07:55:54;;;;;;;7.17;5.10;;;8.60;99.90;;;;;;5054651;28;20550;-47
2023/12/14 07:58:25;;;;;;;9.90;6.10;;;8.60;99.90;;;;;;5057784;28;20478;-45
2023/12/14 08:00:54;;;;;;;8.97;5.33;;;8.60;99.90;;;;;;5055409;28;20451;-47
2023/12/14 08:03:22;;;;;;;8.03;5.40;;;8.60;99.90;;;;;;5048564;28;20542;-47
2023/12/14 08:05:50;;;;;;;7.10;4.93;;;8.60;99.90;;;;;;5053348;28;20477;-45
2023/12/14 08:08:19;;;;;;;7.20;5.07;;;8.60;99.90;;;;;;5053016;28;20948;-46
2023/12/14 08:10:47;;;;;;;7.27;5.00;;;8.60;99.90;;;;;;5050527;28;20500;-46
2023/12/14 08:13:15;;;;;;;7.33;5.40;;;8.60;99.90;;;;;;5052421;28;20900;-46
2023/12/14 08:15:45;;;;;;;6.40;4.80;;;8.60;99.90;;;;;;5058324;28;21003;-46
2023/12/14 08:18:13;;;;;;;7.50;5.27;;;8.60;99.90;;;;;;5052482;28;20442;-45
2023/12/14 08:20:41;;;;;;;6.90;5.03;;;8.60;99.90;;;;;;5052047;28;20466;-47
2023/12/14 08:23:09;;;;;;;8.57;6.10;;;8.60;99.90;;;;;;5050830;28;20439;-45
2023/12/14 08:25:38;;;;;;;5.90;4.80;;;8.60;99.90;;;;;;5054738;28;20474;-46
2023/12/14 08:28:06;;;;;;;5.57;4.43;;;8.60;99.90;;;;;;5053731;28;20447;-47
2023/12/14 08:30:34;;;;;;;8.80;6.67;;;8.60;99.90;;;;;;5055036;28;20540;-46
2023/12/14 08:33:03;;;;;;;9.37;5.63;;;8.60;99.90;;;;;;5054695;28;20419;-47
2023/12/14 08:35:31;;;;;;;8.07;5.70;;;8.60;99.90;;;;;;5053224;28;20498;-47
2023/12/14 08:37:59;;;;;;;7.80;5.70;;;8.60;99.90;;;;;;5052560;28;20466;-47
2023/12/14 08:40:28;;;;;;;8.13;5.40;;;8.60;99.90;;;;;;5059717;28;20450;-47
2023/12/14 08:42:56;;;;;;;9.20;5.30;;;8.60;99.90;;;;;;5061786;28;20443;-46
2023/12/14 08:45:24;;;;;;;8.07;6.30;;;8.60;99.90;;;;;;5058131;28;20482;-45
2023/12/14 08:47:52;;;;;;;7.67;5.17;;;8.60;99.90;;;;;;5056806;28;20446;-47
2023/12/14 08:50:22;;;;;;;7.10;5.50;;;8.60;99.90;;;;;;5057910;28;20528;-45
2023/12/14 08:52:50;;;;;;;5.93;4.30;;;8.60;99.90;;;;;;5055611;28;20810;-44
2023/12/14 08:55:21;;;;;;;7.30;5.50;;;8.60;99.90;;;;;;5061826;28;20455;-47
2023/12/14 08:57:49;;;;;;;7.70;5.43;;;8.60;99.90;;;;;;5057369;28;20507;-46
2023/12/14 09:00:18;;;;;;;7.20;4.97;;;8.60;99.90;;;;;;5061271;28;20494;-47
2023/12/14 09:02:46;;;;;;;9.27;5.73;;;8.60;99.90;;;;;;5053435;28;20439;-47
2023/12/14 09:05:15;;;;;;;7.30;5.63;;;8.60;99.90;;;;;;5054638;28;20475;-46
2023/12/14 09:07:45;;;;;;;6.67;5.40;;;8.60;99.90;;;;;;5060202;28;20958;-47
2023/12/14 09:10:13;;;;;;;6.20;4.70;;;8.60;99.90;;;;;;5058869;28;20463;-47
2023/12/14 09:12:41;;;;;;;7.70;5.23;;;8.60;99.90;;;;;;5058789;28;20855;-47
2023/12/14 09:15:10;;;;;;;6.63;5.40;;;8.60;99.90;;;;;;5055044;28;20467;-46
2023/12/14 09:17:38;;;;;;;7.90;5.70;;;8.60;99.90;;;;;;5059890;28;20827;-47
2023/12/14 09:20:08;;;;;;;7.87;5.20;;;8.60;99.90;;;;;;5058587;28;20573;-47
2023/12/14 09:22:37;;;;;;;6.87;4.63;;;8.60;99.90;;;;;;5055310;28;20451;-47
2023/12/14 09:25:09;;;;;;;9.70;6.07;;;8.60;99.90;;;;;;5057478;28;20508;-46
2023/12/14 09:27:37;;;;;;;8.30;6.40;;;8.60;99.90;;;;;;5053645;28;20441;-46
2023/12/14 09:30:07;;;;;;;7.87;4.97;;;8.60;99.90;;;;;;5059550;28;20629;-45
2023/12/14 09:32:35;;;;;;;7.47;5.37;;;8.60;99.90;;;;;;5060902;28;20454;-46
2023/12/14 09:35:04;;;;;;;5.77;4.90;;;8.60;99.90;;;;;;5062008;28;20455;-47
2023/12/14 09:37:32;;;;;;;8.43;4.50;;;8.60;99.90;;;;;;5059530;28;20492;-47
2023/12/14 09:40:02;;;;;;;6.67;5.20;;;8.60;99.90;;;;;;5059235;28;20463;-45
2023/12/14 09:42:38;;;;;;;8.10;5.83;;;8.60;99.90;;;;;;5054073;28;20439;-47
2023/12/14 09:45:10;;;;;;;7.70;4.67;;;8.60;99.90;;;;;;5054621;28;20572;-46
2023/12/14 09:47:39;;;;;;;7.90;5.00;;;8.60;99.90;;;;;;5061102;28;20406;-46
2023/12/14 09:50:09;;;;;;;6.87;5.20;;;8.60;99.90;;;;;;5050123;28;20847;-45
2023/12/14 09:52:37;;;;;;;6.50;4.50;;;8.60;99.90;;;;;;5054351;28;20450;-45
2023/12/14 09:55:06;;;;;;;6.67;4.80;;;8.60;99.90;;;;;;5061996;28;20470;-46
2023/12/14 09:57:36;;;;;;;6.77;4.50;;;8.60;99.90;;;;;;5055490;28;20449;-46
2023/12/14 10:00:10;;;;;;;6.37;4.87;;;8.60;99.90;;;;;;5058672;28;20475;-47
2023/12/14 10:02:40;;;;;;;6.90;5.30;;;8.50;99.90;;;;;;5056721;28;20427;-47
2023/12/14 10:05:11;;;;;;;7.87;5.23;;;8.60;99.90;;;;;;5054270;28;20470;-47
2023/12/14 10:07:43;;;;;;;6.47;5.13;;;8.50;99.90;;;;;;5058924;28;20769;-46
2023/12/14 10:10:13;;;;;;;6.65;4.43;;;8.60;99.90;;;;;;5058391;28;20505;-46
2023/12/14 10:12:53;;;;;;;6.00;4.30;;;8.60;99.90;;;;;;5053655;28;20194;-45
2023/12/14 10:15:23;;;;;;;6.70;5.77;;;8.50;99.90;;;;;;5059904;28;21099;-47
2023/12/14 10:17:53;;;;;;;8.27;5.70;;;8.60;99.90;;;;;;5055542;28;20991;-46
2023/12/14 10:20:23;;;;;;;6.80;4.70;;;8.50;99.90;;;;;;5050875;28;20550;-46
2023/12/14 10:22:51;;;;;;;6.73;4.50;;;8.60;99.90;;;;;;5054580;28;20438;-46
2023/12/14 10:25:19;;;;;;;5.70;4.00;;;8.50;99.90;;;;;;5057556;28;20467;-47
2023/12/14 10:27:48;;;;;;;6.60;4.83;;;8.60;99.90;;;;;;5053973;28;20473;-47
2023/12/14 10:30:17;;;;;;;6.97;5.60;;;8.50;99.90;;;;;;5057596;28;20487;-46
2023/12/14 10:32:48;;;;;;;6.13;4.70;;;8.60;99.90;;;;;;5058163;28;20433;-45
2023/12/14 10:35:21;;;;;;;5.87;4.47;;;8.50;99.90;;;;;;5068032;28;20979;-46
2023/12/14 10:37:52;;;;;;;7.60;5.53;;;8.50;99.90;;;;;;5057118;28;20487;-46
2023/12/14 10:40:23;;;;;;;8.63;5.30;;;8.50;99.90;;;;;;5053142;28;20583;-45
2023/12/14 10:42:52;;;;;;;5.70;4.87;;;8.50;99.90;;;;;;5053326;28;20443;-46
2023/12/14 10:45:25;;;;;;;5.80;4.47;;;8.60;99.90;;;;;;5053759;28;20581;-46
2023/12/14 10:47:54;;;;;;;8.37;5.17;;;8.50;99.90;;;;;;5051838;28;20430;-47
2023/12/14 10:50:23;;;;;;;7.17;5.30;;;8.50;99.90;;;;;;5059208;28;20981;-45
2023/12/14 10:52:51;;;;;;;7.43;5.50;;;8.50;99.90;;;;;;5055220;28;20439;-44
2023/12/14 10:55:26;;;;;;;6.47;4.83;;;8.50;99.90;;;;;;5058292;28;20456;-48
2023/12/14 10:57:54;;;;;;;6.90;5.10;;;8.50;99.90;;;;;;5056970;28;20453;-45
2023/12/14 11:00:24;;;;;;;7.57;5.63;;;8.50;99.90;;;;;;5051778;28;20472;-46
2023/12/14 11:02:53;;;;;;;9.53;5.77;;;8.50;99.90;;;;;;5052366;28;20434;-47
2023/12/14 11:05:29;;;;;;;6.27;5.03;;;8.50;99.90;;;;;;5048586;28;20930;-46
2023/12/14 11:08:03;;;;;;;7.60;5.63;;;8.50;99.90;;;;;;5051365;28;20531;-46
2023/12/14 11:10:38;;;;;;;4.67;4.17;;;8.50;99.90;;;;;;5052699;28;20638;-48
2023/12/14 11:13:10;;;;;;;7.87;5.40;;;8.50;99.90;;;;;;5055593;28;20797;-47
2023/12/14 11:15:46;;;;;;;8.63;5.53;;;8.50;99.90;;;;;;5048675;28;20498;-46
2023/12/14 11:18:25;;;;;;;6.33;4.57;;;8.50;99.90;;;;;;5051437;28;20502;-47
2023/12/14 11:21:00;;;;;;;6.93;5.10;;;8.50;99.90;;;;;;5050491;28;20463;-46
2023/12/14 11:23:31;;;;;;;6.17;4.90;;;8.50;99.90;;;;;;5056682;28;20518;-47
2023/12/14 11:26:04;;;;;;;6.50;5.63;;;8.50;99.90;;;;;;5052259;28;20485;-44
2023/12/14 11:28:33;;;;;;;5.80;4.83;;;8.50;99.90;;;;;;5054959;28;20462;-46
2023/12/14 11:31:06;;;;;;;7.80;4.97;;;8.50;99.90;;;;;;5052476;28;20554;-47
2023/12/14 11:33:35;;;;;;;7.13;5.07;;;8.50;99.90;;;;;;5053902;28;20418;-45
2023/12/14 11:36:12;;;;;;;6.70;4.90;;;8.50;99.90;;;;;;5051990;28;20489;-46
2023/12/14 11:38:44;;;;;;;6.93;4.97;;;8.50;99.90;;;;;;5052048;28;20434;-46
2023/12/14 11:41:14;;;;;;;5.03;4.50;;;8.50;99.90;;;;;;5053505;28;20466;-46
2023/12/14 11:43:43;;;;;;;5.53;4.80;;;8.50;99.90;;;;;;5057042;28;20778;-47
2023/12/14 11:46:15;;;;;;;6.63;4.30;;;8.50;99.90;;;;;;5052088;28;20502;-47
2023/12/14 11:48:45;;;;;;;5.57;4.60;;;8.50;99.90;;;;;;5062775;28;20458;-46
2023/12/14 11:51:14;;;;;;;7.07;4.57;;;8.50;99.90;;;;;;5066666;28;20570;-46
2023/12/14 11:53:45;;;;;;;6.37;4.60;;;8.50;99.90;;;;;;5063617;28;20445;-45
2023/12/14 11:56:14;;;;;;;5.70;4.40;;;8.50;99.90;;;;;;5054604;28;20865;-48
2023/12/14 11:58:44;;;;;;;7.50;4.77;;;8.50;99.90;;;;;;5050913;28;20466;-47
2023/12/14 12:01:16;;;;;;;5.87;4.40;;;8.50;99.90;;;;;;5049852;28;20467;-46
2023/12/14 12:03:47;;;;;;;6.40;4.90;;;8.50;99.90;;;;;;5052524;28;20423;-47
2023/12/14 12:06:23;;;;;;;5.30;4.30;;;8.50;99.90;;;;;;5055577;28;20463;-46
2023/12/14 12:08:52;;;;;;;6.37;4.70;;;8.50;99.90;;;;;;5052247;28;20446;-47
2023/12/14 12:11:22;;;;;;;6.90;4.80;;;8.50;99.90;;;;;;5051399;28;20508;-45
2023/12/14 12:13:54;;;;;;;5.43;4.30;;;8.50;99.90;;;;;;5048943;28;20789;-48
2023/12/14 12:16:25;;;;;;;6.97;4.87;;;8.50;99.90;;;;;;5054964;28;20479;-47
2023/12/14 12:18:53;;;;;;;5.40;4.57;;;8.50;99.90;;;;;;5059341;28;21862;-47
2023/12/14 12:21:21;;;;;;;5.13;4.30;;;8.50;99.90;;;;;;5056670;28;21065;-45
2023/12/14 12:23:49;;;;;;;5.73;5.03;;;8.50;99.90;;;;;;5056828;28;20439;-47
2023/12/14 12:26:17;;;;;;;6.97;5.20;;;8.50;99.90;;;;;;5057034;28;20987;-48
2023/12/14 12:28:47;;;;;;;6.73;4.33;;;8.50;99.90;;;;;;5055931;28;20475;-45
2023/12/14 12:31:16;;;;;;;6.97;5.13;;;8.50;99.90;;;;;;5060441;28;20988;-46
2023/12/14 12:33:45;;;;;;;6.37;4.77;;;8.50;99.90;;;;;;5064224;28;20849;-45
2023/12/14 12:36:14;;;;;;;4.83;4.10;;;8.50;99.90;;;;;;5055597;28;20455;-45
2023/12/14 12:38:42;;;;;;;5.93;4.97;;;8.50;99.90;;;;;;5059792;28;21026;-46
2023/12/14 12:41:10;;;;;;;6.13;4.70;;;8.50;99.90;;;;;;5055392;28;20467;-46
2023/12/14 12:43:38;;;;;;;5.70;4.47;;;8.50;99.90;;;;;;5057128;28;20454;-47
2023/12/14 12:46:06;;;;;;;6.00;4.53;;;8.50;99.90;;;;;;5062699;28;20462;-46
2023/12/14 12:48:35;;;;;;;6.93;4.90;;;8.50;99.90;;;;;;5053676;28;20474;-47
2023/12/14 12:51:05;;;;;;;5.20;4.43;;;8.50;99.90;;;;;;5055109;28;20459;-45
2023/12/14 12:53:33;;;;;;;6.47;5.20;;;8.50;99.90;;;;;;5053974;28;20450;-46
2023/12/14 12:56:02;;;;;;;5.83;4.47;;;8.50;99.90;;;;;;5054939;28;20459;-46
2023/12/14 12:58:30;;;;;;;5.47;4.10;;;8.50;99.90;;;;;;5060026;28;20461;-47
2023/12/14 13:00:58;;;;;;;4.97;4.30;;;8.50;99.90;;;;;;5051145;28;20490;-47
2023/12/14 13:03:26;;;;;;;6.13;4.47;;;8.50;99.90;;;;;;5055128;28;20489;-46
2023/12/14 13:05:55;;;;;;;5.47;4.53;;;8.50;99.90;;;;;;5054947;28;20500;-46
2023/12/14 13:08:24;;;;;;;5.70;4.90;;;8.50;99.90;;;;;;5058864;28;20505;-47